sensor_id;sensor_type;location;lat;lon;timestamp;pressure;altitude;pressure_sealevel;temperature;humidity
58223;BME280;44020;50.890;15.796;2023-04-22T00:01:40;97567.86;;;6.38;65.54
58223;BME280;44020;50.890;15.796;2023-04-22T00:04:08;97571.51;;;6.33;65.98
58223;BME280;44020;50.890;15.796;2023-04-22T00:06:36;97570.19;;;6.31;66.06
58223;BME280;44020;50.890;15.796;2023-04-22T00:09:03;97569.25;;;6.32;66.01
58223;BME280;44020;50.890;15.796;2023-04-22T00:11:31;97564.73;;;6.28;66.05
58223;BME280;44020;50.890;15.796;2023-04-22T00:13:59;97563.84;;;6.21;65.98
58223;BME280;44020;50.890;15.796;2023-04-22T00:16:27;97563.83;;;6.18;66.48
58223;BME280;44020;50.890;15.796;2023-04-22T00:18:54;97564.67;;;6.13;66.01
58223;BME280;44020;50.890;15.796;2023-04-22T00:21:22;97568.30;;;6.04;66.01
58223;BME280;44020;50.890;15.796;2023-04-22T00:23:50;97559.63;;;5.98;66.15
58223;BME280;44020;50.890;15.796;2023-04-22T00:26:17;97563.88;;;5.94;66.47
58223;BME280;44020;50.890;15.796;2023-04-22T00:28:45;97558.08;;;5.90;66.56
58223;BME280;44020;50.890;15.796;2023-04-22T00:31:12;97558.89;;;5.85;66.53
58223;BME280;44020;50.890;15.796;2023-04-22T00:33:39;97557.73;;;5.80;66.67
58223;BME280;44020;50.890;15.796;2023-04-22T00:36:07;97555.55;;;5.78;67.02
58223;BME280;44020;50.890;15.796;2023-04-22T00:38:35;97550.23;;;5.79;67.04
58223;BME280;44020;50.890;15.796;2023-04-22T00:41:04;97553.23;;;5.75;66.92
58223;BME280;44020;50.890;15.796;2023-04-22T00:43:32;97548.77;;;5.73;66.84
58223;BME280;44020;50.890;15.796;2023-04-22T00:46:00;97551.45;;;5.66;67.02
58223;BME280;44020;50.890;15.796;2023-04-22T00:48:28;97553.56;;;5.63;67.24
58223;BME280;44020;50.890;15.796;2023-04-22T00:50:56;97546.91;;;5.61;67.27
58223;BME280;44020;50.890;15.796;2023-04-22T00:53:24;97549.33;;;5.56;67.45
58223;BME280;44020;50.890;15.796;2023-04-22T00:55:51;97549.91;;;5.51;67.30
58223;BME280;44020;50.890;15.796;2023-04-22T00:58:20;97548.90;;;5.44;67.37
58223;BME280;44020;50.890;15.796;2023-04-22T01:00:48;97544.21;;;5.42;67.62
58223;BME280;44020;50.890;15.796;2023-04-22T01:03:16;97543.77;;;5.41;67.42
58223;BME280;44020;50.890;15.796;2023-04-22T01:05:49;97543.84;;;5.43;67.62
58223;BME280;44020;50.890;15.796;2023-04-22T01:08:17;97541.42;;;5.42;68.03
58223;BME280;44020;50.890;15.796;2023-04-22T01:10:45;97543.61;;;5.41;68.03
58223;BME280;44020;50.890;15.796;2023-04-22T01:13:12;97540.80;;;5.37;68.07
58223;BME280;44020;50.890;15.796;2023-04-22T01:15:40;97542.02;;;5.31;67.87
58223;BME280;44020;50.890;15.796;2023-04-22T01:18:08;97540.39;;;5.21;67.84
58223;BME280;44020;50.890;15.796;2023-04-22T01:20:36;97537.79;;;5.14;67.72
58223;BME280;44020;50.890;15.796;2023-04-22T01:23:06;97539.80;;;5.09;67.88
58223;BME280;44020;50.890;15.796;2023-04-22T01:25:36;97543.30;;;5.06;68.09
58223;BME280;44020;50.890;15.796;2023-04-22T01:28:03;97540.23;;;5.00;67.97
58223;BME280;44020;50.890;15.796;2023-04-22T01:30:31;97541.69;;;4.95;68.09
58223;BME280;44020;50.890;15.796;2023-04-22T01:32:59;97536.64;;;4.91;67.92
58223;BME280;44020;50.890;15.796;2023-04-22T01:35:26;97534.36;;;4.87;68.06
58223;BME280;44020;50.890;15.796;2023-04-22T01:37:56;97533.42;;;4.85;68.10
58223;BME280;44020;50.890;15.796;2023-04-22T01:40:25;97530.06;;;4.82;68.30
58223;BME280;44020;50.890;15.796;2023-04-22T01:42:53;97530.99;;;4.80;68.55
58223;BME280;44020;50.890;15.796;2023-04-22T01:45:20;97536.56;;;4.78;68.29
58223;BME280;44020;50.890;15.796;2023-04-22T01:47:48;97534.30;;;4.74;68.55
58223;BME280;44020;50.890;15.796;2023-04-22T01:50:16;97534.77;;;4.68;68.41
58223;BME280;44020;50.890;15.796;2023-04-22T01:52:43;97534.38;;;4.62;68.62
58223;BME280;44020;50.890;15.796;2023-04-22T01:55:11;97532.41;;;4.63;68.78
58223;BME280;44020;50.890;15.796;2023-04-22T01:57:39;97532.08;;;4.62;68.88
58223;BME280;44020;50.890;15.796;2023-04-22T02:00:08;97530.58;;;4.61;68.68
58223;BME280;44020;50.890;15.796;2023-04-22T02:02:35;97529.14;;;4.58;68.78
58223;BME280;44020;50.890;15.796;2023-04-22T02:05:05;97526.64;;;4.55;68.56
58223;BME280;44020;50.890;15.796;2023-04-22T02:07:33;97526.10;;;4.48;68.64
58223;BME280;44020;50.890;15.796;2023-04-22T02:10:02;97525.90;;;4.41;68.59
58223;BME280;44020;50.890;15.796;2023-04-22T02:12:30;97525.75;;;4.37;68.79
58223;BME280;44020;50.890;15.796;2023-04-22T02:15:01;97522.27;;;4.36;68.97
58223;BME280;44020;50.890;15.796;2023-04-22T02:17:29;97521.73;;;4.36;68.81
58223;BME280;44020;50.890;15.796;2023-04-22T02:19:57;97524.00;;;4.36;68.87
58223;BME280;44020;50.890;15.796;2023-04-22T02:22:24;97521.99;;;4.35;68.83
58223;BME280;44020;50.890;15.796;2023-04-22T02:24:53;97517.41;;;4.34;69.08
58223;BME280;44020;50.890;15.796;2023-04-22T02:27:20;97518.80;;;4.35;69.10
58223;BME280;44020;50.890;15.796;2023-04-22T02:29:48;97518.05;;;4.32;69.29
58223;BME280;44020;50.890;15.796;2023-04-22T02:32:16;97515.17;;;4.30;69.14
58223;BME280;44020;50.890;15.796;2023-04-22T02:34:44;97508.13;;;4.23;69.10
58223;BME280;44020;50.890;15.796;2023-04-22T02:37:13;97510.52;;;4.17;69.17
58223;BME280;44020;50.890;15.796;2023-04-22T02:39:41;97509.38;;;4.12;69.41
58223;BME280;44020;50.890;15.796;2023-04-22T02:42:09;97507.36;;;4.06;69.36
58223;BME280;44020;50.890;15.796;2023-04-22T02:44:37;97510.31;;;3.99;69.39
58223;BME280;44020;50.890;15.796;2023-04-22T02:47:06;97511.05;;;3.91;69.50
58223;BME280;44020;50.890;15.796;2023-04-22T02:49:33;97511.42;;;3.90;69.76
58223;BME280;44020;50.890;15.796;2023-04-22T02:52:01;97507.25;;;3.89;69.81
58223;BME280;44020;50.890;15.796;2023-04-22T02:54:29;97505.73;;;3.85;69.69
58223;BME280;44020;50.890;15.796;2023-04-22T02:56:58;97505.16;;;3.78;69.72
58223;BME280;44020;50.890;15.796;2023-04-22T02:59:25;97501.80;;;3.70;69.68
58223;BME280;44020;50.890;15.796;2023-04-22T03:01:53;97501.30;;;3.70;69.93
58223;BME280;44020;50.890;15.796;2023-04-22T03:04:20;97501.89;;;3.72;70.18
58223;BME280;44020;50.890;15.796;2023-04-22T03:06:48;97500.27;;;3.73;70.25
58223;BME280;44020;50.890;15.796;2023-04-22T03:09:16;97502.67;;;3.71;70.28
58223;BME280;44020;50.890;15.796;2023-04-22T03:11:43;97506.61;;;3.69;70.34
58223;BME280;44020;50.890;15.796;2023-04-22T03:14:11;97503.91;;;3.70;70.47
58223;BME280;44020;50.890;15.796;2023-04-22T03:16:39;97501.92;;;3.71;70.42
58223;BME280;44020;50.890;15.796;2023-04-22T03:19:07;97499.33;;;3.67;70.30
58223;BME280;44020;50.890;15.796;2023-04-22T03:21:34;97499.45;;;3.65;70.49
58223;BME280;44020;50.890;15.796;2023-04-22T03:24:02;97501.96;;;3.63;70.42
58223;BME280;44020;50.890;15.796;2023-04-22T03:26:30;97498.34;;;3.62;70.33
58223;BME280;44020;50.890;15.796;2023-04-22T03:28:58;97497.20;;;3.55;70.36
58223;BME280;44020;50.890;15.796;2023-04-22T03:31:25;97496.98;;;3.53;70.38
58223;BME280;44020;50.890;15.796;2023-04-22T03:33:53;97493.53;;;3.51;70.42
58223;BME280;44020;50.890;15.796;2023-04-22T03:36:21;97493.25;;;3.46;70.55
58223;BME280;44020;50.890;15.796;2023-04-22T03:38:48;97490.84;;;3.45;70.74
58223;BME280;44020;50.890;15.796;2023-04-22T03:41:16;97489.00;;;3.43;70.74
58223;BME280;44020;50.890;15.796;2023-04-22T03:43:44;97489.86;;;3.43;70.83
58223;BME280;44020;50.890;15.796;2023-04-22T03:46:11;97489.56;;;3.42;70.81
58223;BME280;44020;50.890;15.796;2023-04-22T03:48:39;97483.23;;;3.38;70.84
58223;BME280;44020;50.890;15.796;2023-04-22T03:51:06;97487.15;;;3.33;70.99
58223;BME280;44020;50.890;15.796;2023-04-22T03:53:34;97489.45;;;3.29;70.96
58223;BME280;44020;50.890;15.796;2023-04-22T03:56:01;97486.72;;;3.27;71.23
58223;BME280;44020;50.890;15.796;2023-04-22T03:58:29;97488.12;;;3.27;71.38
58223;BME280;44020;50.890;15.796;2023-04-22T04:00:57;97492.99;;;3.28;71.39
58223;BME280;44020;50.890;15.796;2023-04-22T04:03:24;97492.98;;;3.29;71.28
58223;BME280;44020;50.890;15.796;2023-04-22T04:05:53;97495.69;;;3.27;71.31
58223;BME280;44020;50.890;15.796;2023-04-22T04:08:20;97495.28;;;3.20;71.02
58223;BME280;44020;50.890;15.796;2023-04-22T04:10:48;97495.27;;;3.16;71.17
58223;BME280;44020;50.890;15.796;2023-04-22T04:13:16;97497.25;;;3.16;71.50
58223;BME280;44020;50.890;15.796;2023-04-22T04:15:44;97498.29;;;3.16;71.47
58223;BME280;44020;50.890;15.796;2023-04-22T04:18:11;97498.98;;;3.16;71.62
58223;BME280;44020;50.890;15.796;2023-04-22T04:20:39;97500.07;;;3.15;71.70
58223;BME280;44020;50.890;15.796;2023-04-22T04:23:06;97498.08;;;3.16;71.95
58223;BME280;44020;50.890;15.796;2023-04-22T04:25:33;97497.84;;;3.18;72.03
58223;BME280;44020;50.890;15.796;2023-04-22T04:28:05;97497.45;;;3.19;71.94
58223;BME280;44020;50.890;15.796;2023-04-22T04:30:35;97496.25;;;3.22;72.61
58223;BME280;44020;50.890;15.796;2023-04-22T04:33:03;97499.17;;;3.27;72.67
58223;BME280;44020;50.890;15.796;2023-04-22T04:35:34;97503.72;;;3.32;72.55
58223;BME280;44020;50.890;15.796;2023-04-22T04:38:02;97501.05;;;3.32;72.59
58223;BME280;44020;50.890;15.796;2023-04-22T04:40:30;97505.69;;;3.35;72.74
58223;BME280;44020;50.890;15.796;2023-04-22T04:42:57;97504.08;;;3.40;73.06
58223;BME280;44020;50.890;15.796;2023-04-22T04:45:25;97502.98;;;3.44;73.21
58223;BME280;44020;50.890;15.796;2023-04-22T04:47:52;97505.13;;;3.47;73.04
58223;BME280;44020;50.890;15.796;2023-04-22T04:50:21;97505.52;;;3.50;73.29
58223;BME280;44020;50.890;15.796;2023-04-22T04:52:48;97505.34;;;3.54;73.47
58223;BME280;44020;50.890;15.796;2023-04-22T04:55:16;97504.58;;;3.60;73.56
58223;BME280;44020;50.890;15.796;2023-04-22T04:57:44;97503.41;;;3.62;73.58
58223;BME280;44020;50.890;15.796;2023-04-22T05:00:11;97499.83;;;3.64;73.70
58223;BME280;44020;50.890;15.796;2023-04-22T05:02:40;97500.98;;;3.69;74.07
58223;BME280;44020;50.890;15.796;2023-04-22T05:05:09;97502.19;;;3.73;74.06
58223;BME280;44020;50.890;15.796;2023-04-22T05:07:36;97497.61;;;3.78;74.07
58223;BME280;44020;50.890;15.796;2023-04-22T05:10:04;97499.29;;;3.79;74.24
58223;BME280;44020;50.890;15.796;2023-04-22T05:12:32;97496.92;;;3.85;74.55
58223;BME280;44020;50.890;15.796;2023-04-22T05:15:00;97501.36;;;3.91;74.69
58223;BME280;44020;50.890;15.796;2023-04-22T05:17:27;97498.98;;;3.97;74.83
58223;BME280;44020;50.890;15.796;2023-04-22T05:19:55;97496.23;;;4.03;74.97
58223;BME280;44020;50.890;15.796;2023-04-22T05:22:23;97497.56;;;4.09;75.37
58223;BME280;44020;50.890;15.796;2023-04-22T05:24:50;97498.05;;;4.17;75.54
58223;BME280;44020;50.890;15.796;2023-04-22T05:27:17;97496.33;;;4.23;75.90
58223;BME280;44020;50.890;15.796;2023-04-22T05:29:45;97502.29;;;4.31;75.84
58223;BME280;44020;50.890;15.796;2023-04-22T05:32:13;97496.19;;;4.37;76.05
58223;BME280;44020;50.890;15.796;2023-04-22T05:34:40;97495.16;;;4.44;76.26
58223;BME280;44020;50.890;15.796;2023-04-22T05:37:08;97493.27;;;4.50;76.37
58223;BME280;44020;50.890;15.796;2023-04-22T05:39:37;97491.86;;;4.57;76.70
58223;BME280;44020;50.890;15.796;2023-04-22T05:42:04;97492.81;;;4.63;76.60
58223;BME280;44020;50.890;15.796;2023-04-22T05:44:31;97497.58;;;4.70;76.93
58223;BME280;44020;50.890;15.796;2023-04-22T05:46:59;97495.61;;;4.77;77.03
58223;BME280;44020;50.890;15.796;2023-04-22T05:49:26;97494.23;;;4.84;77.13
58223;BME280;44020;50.890;15.796;2023-04-22T05:51:54;97496.89;;;4.91;77.20
58223;BME280;44020;50.890;15.796;2023-04-22T05:54:22;97493.52;;;4.97;77.31
58223;BME280;44020;50.890;15.796;2023-04-22T05:56:49;97494.91;;;5.05;77.67
58223;BME280;44020;50.890;15.796;2023-04-22T05:59:17;97491.69;;;5.13;77.77
58223;BME280;44020;50.890;15.796;2023-04-22T06:01:46;97489.02;;;5.20;77.92
58223;BME280;44020;50.890;15.796;2023-04-22T06:04:14;97487.25;;;5.27;78.16
58223;BME280;44020;50.890;15.796;2023-04-22T06:06:41;97488.52;;;5.33;78.04
58223;BME280;44020;50.890;15.796;2023-04-22T06:09:09;97488.84;;;5.40;78.10
58223;BME280;44020;50.890;15.796;2023-04-22T06:11:37;97487.87;;;5.49;78.60
58223;BME280;44020;50.890;15.796;2023-04-22T06:14:05;97485.69;;;5.56;78.69
58223;BME280;44020;50.890;15.796;2023-04-22T06:16:32;97487.32;;;5.65;78.58
58223;BME280;44020;50.890;15.796;2023-04-22T06:19:00;97485.29;;;5.74;78.95
58223;BME280;44020;50.890;15.796;2023-04-22T06:21:27;97482.40;;;5.82;78.79
58223;BME280;44020;50.890;15.796;2023-04-22T06:23:55;97475.88;;;5.91;78.83
58223;BME280;44020;50.890;15.796;2023-04-22T06:26:22;97478.38;;;6.01;78.73
58223;BME280;44020;50.890;15.796;2023-04-22T06:28:49;97477.67;;;6.10;78.66
58223;BME280;44020;50.890;15.796;2023-04-22T06:31:17;97479.38;;;6.21;78.89
58223;BME280;44020;50.890;15.796;2023-04-22T06:33:45;97479.34;;;6.31;78.55
58223;BME280;44020;50.890;15.796;2023-04-22T06:36:13;97479.14;;;6.40;78.67
58223;BME280;44020;50.890;15.796;2023-04-22T06:38:40;97473.48;;;6.50;78.43
58223;BME280;44020;50.890;15.796;2023-04-22T06:41:08;97475.27;;;6.59;78.39
58223;BME280;44020;50.890;15.796;2023-04-22T06:43:35;97474.52;;;6.69;78.91
58223;BME280;44020;50.890;15.796;2023-04-22T06:46:03;97473.46;;;6.78;79.06
58223;BME280;44020;50.890;15.796;2023-04-22T06:48:31;97477.91;;;6.89;79.41
58223;BME280;44020;50.890;15.796;2023-04-22T06:50:58;97473.91;;;7.00;79.36
58223;BME280;44020;50.890;15.796;2023-04-22T06:53:27;97474.54;;;7.10;79.47
58223;BME280;44020;50.890;15.796;2023-04-22T06:55:54;97476.27;;;7.22;79.57
58223;BME280;44020;50.890;15.796;2023-04-22T06:58:22;97475.40;;;7.34;79.50
58223;BME280;44020;50.890;15.796;2023-04-22T07:00:49;97473.65;;;7.45;79.76
58223;BME280;44020;50.890;15.796;2023-04-22T07:03:16;97470.67;;;7.59;79.93
58223;BME280;44020;50.890;15.796;2023-04-22T07:05:44;97468.83;;;7.72;79.85
58223;BME280;44020;50.890;15.796;2023-04-22T07:08:11;97464.70;;;7.84;79.90
58223;BME280;44020;50.890;15.796;2023-04-22T07:10:39;97461.57;;;7.97;79.55
58223;BME280;44020;50.890;15.796;2023-04-22T07:13:06;97458.52;;;8.09;79.46
58223;BME280;44020;50.890;15.796;2023-04-22T07:15:34;97457.29;;;8.22;79.62
58223;BME280;44020;50.890;15.796;2023-04-22T07:18:01;97454.64;;;8.36;79.47
58223;BME280;44020;50.890;15.796;2023-04-22T07:20:29;97453.89;;;8.48;79.24
58223;BME280;44020;50.890;15.796;2023-04-22T07:22:56;97451.70;;;8.62;79.14
58223;BME280;44020;50.890;15.796;2023-04-22T07:25:23;97449.66;;;8.77;79.19
58223;BME280;44020;50.890;15.796;2023-04-22T07:27:51;97449.81;;;8.90;78.95
58223;BME280;44020;50.890;15.796;2023-04-22T07:30:18;97450.10;;;9.07;78.99
58223;BME280;44020;50.890;15.796;2023-04-22T07:32:46;97447.98;;;9.23;78.97
58223;BME280;44020;50.890;15.796;2023-04-22T07:35:14;97444.70;;;9.37;78.77
58223;BME280;44020;50.890;15.796;2023-04-22T07:37:41;97443.09;;;9.52;78.77
58223;BME280;44020;50.890;15.796;2023-04-22T07:40:09;97443.18;;;9.66;78.28
58223;BME280;44020;50.890;15.796;2023-04-22T07:42:40;97442.05;;;9.79;77.78
58223;BME280;44020;50.890;15.796;2023-04-22T07:45:08;97441.66;;;9.92;77.26
58223;BME280;44020;50.890;15.796;2023-04-22T07:47:35;97441.23;;;10.05;76.57
58223;BME280;44020;50.890;15.796;2023-04-22T07:50:04;97439.75;;;10.19;76.19
58223;BME280;44020;50.890;15.796;2023-04-22T07:52:32;97430.61;;;10.30;75.59
58223;BME280;44020;50.890;15.796;2023-04-22T07:54:59;97432.28;;;10.43;74.48
58223;BME280;44020;50.890;15.796;2023-04-22T07:57:28;97432.83;;;10.60;73.98
58223;BME280;44020;50.890;15.796;2023-04-22T07:59:55;97432.50;;;10.74;72.17
58223;BME280;44020;50.890;15.796;2023-04-22T08:02:23;97430.89;;;10.88;71.67
58223;BME280;44020;50.890;15.796;2023-04-22T08:04:51;97434.35;;;11.03;70.66
58223;BME280;44020;50.890;15.796;2023-04-22T08:07:19;97433.63;;;11.17;69.41
58223;BME280;44020;50.890;15.796;2023-04-22T08:09:46;97433.18;;;11.30;68.74
58223;BME280;44020;50.890;15.796;2023-04-22T08:12:14;97432.84;;;11.44;67.40
58223;BME280;44020;50.890;15.796;2023-04-22T08:14:41;97432.61;;;11.58;66.69
58223;BME280;44020;50.890;15.796;2023-04-22T08:17:09;97432.31;;;11.77;66.41
58223;BME280;44020;50.890;15.796;2023-04-22T08:19:37;97431.52;;;12.01;65.77
58223;BME280;44020;50.890;15.796;2023-04-22T08:22:04;97435.66;;;12.20;64.89
58223;BME280;44020;50.890;15.796;2023-04-22T08:24:31;97432.70;;;12.26;63.96
58223;BME280;44020;50.890;15.796;2023-04-22T08:26:59;97431.05;;;12.46;62.49
58223;BME280;44020;50.890;15.796;2023-04-22T08:29:28;97429.73;;;12.69;61.03
58223;BME280;44020;50.890;15.796;2023-04-22T08:31:55;97432.83;;;12.85;60.32
58223;BME280;44020;50.890;15.796;2023-04-22T08:34:23;97431.91;;;12.90;59.23
58223;BME280;44020;50.890;15.796;2023-04-22T08:36:52;97431.91;;;12.98;59.00
58223;BME280;44020;50.890;15.796;2023-04-22T08:39:20;97431.84;;;13.01;57.97
58223;BME280;44020;50.890;15.796;2023-04-22T08:41:49;97432.36;;;13.03;56.27
58223;BME280;44020;50.890;15.796;2023-04-22T08:44:18;97432.45;;;13.06;56.15
58223;BME280;44020;50.890;15.796;2023-04-22T08:46:46;97427.46;;;13.10;55.13
58223;BME280;44020;50.890;15.796;2023-04-22T08:49:15;97426.48;;;13.16;54.76
58223;BME280;44020;50.890;15.796;2023-04-22T08:51:43;97425.06;;;13.24;54.75
58223;BME280;44020;50.890;15.796;2023-04-22T08:54:11;97428.09;;;13.33;54.52
58223;BME280;44020;50.890;15.796;2023-04-22T08:56:43;97425.05;;;13.41;54.47
58223;BME280;44020;50.890;15.796;2023-04-22T08:59:12;97427.47;;;13.55;55.00
58223;BME280;44020;50.890;15.796;2023-04-22T09:01:40;97423.98;;;13.72;54.43
58223;BME280;44020;50.890;15.796;2023-04-22T09:04:09;97424.93;;;13.78;53.39
58223;BME280;44020;50.890;15.796;2023-04-22T09:06:37;97421.77;;;13.81;53.26
58223;BME280;44020;50.890;15.796;2023-04-22T09:09:06;97421.42;;;13.85;52.74
58223;BME280;44020;50.890;15.796;2023-04-22T09:11:36;97417.08;;;13.92;52.24
58223;BME280;44020;50.890;15.796;2023-04-22T09:14:04;97418.52;;;14.02;52.45
58223;BME280;44020;50.890;15.796;2023-04-22T09:16:33;97416.35;;;14.10;51.96
58223;BME280;44020;50.890;15.796;2023-04-22T09:19:11;97417.17;;;14.17;52.09
58223;BME280;44020;50.890;15.796;2023-04-22T09:21:40;97411.55;;;14.32;51.64
58223;BME280;44020;50.890;15.796;2023-04-22T09:24:10;97409.41;;;14.46;51.08
58223;BME280;44020;50.890;15.796;2023-04-22T09:26:40;97410.98;;;14.52;50.30
58223;BME280;44020;50.890;15.796;2023-04-22T09:29:15;97404.23;;;14.53;50.20
58223;BME280;44020;50.890;15.796;2023-04-22T09:31:49;97401.23;;;14.57;49.66
58223;BME280;44020;50.890;15.796;2023-04-22T09:34:16;97400.82;;;14.68;49.39
58223;BME280;44020;50.890;15.796;2023-04-22T09:36:44;97405.25;;;14.80;49.14
58223;BME280;44020;50.890;15.796;2023-04-22T09:39:13;97406.30;;;14.90;48.27
58223;BME280;44020;50.890;15.796;2023-04-22T09:41:41;97400.02;;;14.94;48.27
58223;BME280;44020;50.890;15.796;2023-04-22T09:44:14;97401.16;;;14.97;48.42
58223;BME280;44020;50.890;15.796;2023-04-22T09:46:43;97400.66;;;15.04;48.35
58223;BME280;44020;50.890;15.796;2023-04-22T09:49:11;97397.02;;;15.18;48.56
58223;BME280;44020;50.890;15.796;2023-04-22T09:51:41;97392.34;;;15.37;47.95
58223;BME280;44020;50.890;15.796;2023-04-22T09:54:10;97390.63;;;15.54;47.95
58223;BME280;44020;50.890;15.796;2023-04-22T09:56:48;97383.36;;;15.70;48.05
58223;BME280;44020;50.890;15.796;2023-04-22T09:59:27;97380.31;;;15.79;47.45
58223;BME280;44020;50.890;15.796;2023-04-22T10:01:57;97378.85;;;15.83;47.22
58223;BME280;44020;50.890;15.796;2023-04-22T10:04:26;97377.69;;;15.92;47.03
58223;BME280;44020;50.890;15.796;2023-04-22T10:06:54;97372.95;;;16.03;47.02
58223;BME280;44020;50.890;15.796;2023-04-22T10:09:24;97368.15;;;16.14;46.93
58223;BME280;44020;50.890;15.796;2023-04-22T10:11:53;97366.82;;;16.20;46.55
58223;BME280;44020;50.890;15.796;2023-04-22T10:14:21;97371.77;;;16.30;46.29
58223;BME280;44020;50.890;15.796;2023-04-22T10:16:51;97367.67;;;16.39;45.76
58223;BME280;44020;50.890;15.796;2023-04-22T10:19:22;97365.38;;;16.43;45.44
58223;BME280;44020;50.890;15.796;2023-04-22T10:21:55;97363.80;;;16.51;44.92
58223;BME280;44020;50.890;15.796;2023-04-22T10:24:25;97362.23;;;16.57;44.53
58223;BME280;44020;50.890;15.796;2023-04-22T10:26:58;97353.38;;;16.60;44.12
58223;BME280;44020;50.890;15.796;2023-04-22T10:29:35;97353.65;;;16.62;43.70
58223;BME280;44020;50.890;15.796;2023-04-22T10:32:27;97356.70;;;16.73;43.59
58223;BME280;44020;50.890;15.796;2023-04-22T10:35:12;97358.13;;;16.88;44.01
58223;BME280;44020;50.890;15.796;2023-04-22T10:37:40;97354.63;;;17.06;44.22
58223;BME280;44020;50.890;15.796;2023-04-22T10:40:17;97350.42;;;17.16;44.28
58223;BME280;44020;50.890;15.796;2023-04-22T10:42:51;97347.79;;;17.18;43.57
58223;BME280;44020;50.890;15.796;2023-04-22T10:45:23;97349.42;;;17.27;43.69
58223;BME280;44020;50.890;15.796;2023-04-22T10:47:51;97341.88;;;17.39;43.54
58223;BME280;44020;50.890;15.796;2023-04-22T10:53:00;97333.56;;;17.60;43.09
58223;BME280;44020;50.890;15.796;2023-04-22T10:55:51;97331.23;;;17.71;42.34
58223;BME280;44020;50.890;15.796;2023-04-22T10:58:21;97329.68;;;17.77;42.07
58223;BME280;44020;50.890;15.796;2023-04-22T11:00:51;97328.11;;;17.83;41.88
58223;BME280;44020;50.890;15.796;2023-04-22T11:03:27;97329.19;;;17.95;41.99
58223;BME280;44020;50.890;15.796;2023-04-22T11:06:15;97325.44;;;18.08;41.87
58223;BME280;44020;50.890;15.796;2023-04-22T11:08:47;97317.98;;;18.20;41.04
58223;BME280;44020;50.890;15.796;2023-04-22T11:11:16;97317.78;;;18.28;41.33
58223;BME280;44020;50.890;15.796;2023-04-22T11:13:46;97316.64;;;18.37;41.47
58223;BME280;44020;50.890;15.796;2023-04-22T11:16:16;97317.54;;;18.45;41.30
58223;BME280;44020;50.890;15.796;2023-04-22T11:18:45;97312.45;;;18.57;40.85
58223;BME280;44020;50.890;15.796;2023-04-22T11:21:14;97308.14;;;18.72;40.62
58223;BME280;44020;50.890;15.796;2023-04-22T11:23:49;97306.75;;;18.83;40.09
58223;BME280;44020;50.890;15.796;2023-04-22T11:26:17;97299.26;;;18.87;39.54
58223;BME280;44020;50.890;15.796;2023-04-22T11:28:45;97301.38;;;18.91;39.37
58223;BME280;44020;50.890;15.796;2023-04-22T11:31:13;97297.28;;;18.95;39.07
58223;BME280;44020;50.890;15.796;2023-04-22T11:33:41;97297.19;;;19.07;39.13
58223;BME280;44020;50.890;15.796;2023-04-22T11:36:10;97295.75;;;19.22;39.64
58223;BME280;44020;50.890;15.796;2023-04-22T11:38:38;97291.09;;;19.33;39.58
58223;BME280;44020;50.890;15.796;2023-04-22T11:41:06;97289.38;;;19.44;39.21
58223;BME280;44020;50.890;15.796;2023-04-22T11:43:33;97284.66;;;19.50;38.71
58223;BME280;44020;50.890;15.796;2023-04-22T11:46:01;97284.09;;;19.51;38.18
58223;BME280;44020;50.890;15.796;2023-04-22T11:48:30;97277.80;;;19.58;38.44
58223;BME280;44020;50.890;15.796;2023-04-22T11:51:09;97275.98;;;19.70;38.64
58223;BME280;44020;50.890;15.796;2023-04-22T11:53:49;97267.30;;;19.76;38.69
58223;BME280;44020;50.890;15.796;2023-04-22T11:56:16;97263.78;;;19.79;38.26
58223;BME280;44020;50.890;15.796;2023-04-22T11:58:43;97261.70;;;19.87;38.39
58223;BME280;44020;50.890;15.796;2023-04-22T12:01:12;97261.52;;;19.98;38.21
58223;BME280;44020;50.890;15.796;2023-04-22T12:03:40;97260.17;;;20.10;37.96
58223;BME280;44020;50.890;15.796;2023-04-22T12:06:07;97256.87;;;20.18;38.09
58223;BME280;44020;50.890;15.796;2023-04-22T12:08:39;97253.80;;;20.29;38.08
58223;BME280;44020;50.890;15.796;2023-04-22T12:11:10;97248.15;;;20.38;37.83
58223;BME280;44020;50.890;15.796;2023-04-22T12:16:14;97252.98;;;20.59;36.65
58223;BME280;44020;50.890;15.796;2023-04-22T12:18:53;97252.42;;;20.65;36.57
58223;BME280;44020;50.890;15.796;2023-04-22T12:21:23;97248.59;;;20.75;36.58
58223;BME280;44020;50.890;15.796;2023-04-22T12:23:53;97252.02;;;20.81;36.31
58223;BME280;44020;50.890;15.796;2023-04-22T12:26:23;97255.06;;;20.91;36.15
58223;BME280;44020;50.890;15.796;2023-04-22T12:28:54;97253.45;;;21.00;35.73
58223;BME280;44020;50.890;15.796;2023-04-22T12:31:22;97244.33;;;21.03;35.51
58223;BME280;44020;50.890;15.796;2023-04-22T12:33:50;97243.09;;;21.10;35.19
58223;BME280;44020;50.890;15.796;2023-04-22T12:36:19;97241.75;;;21.19;35.28
58223;BME280;44020;50.890;15.796;2023-04-22T12:38:47;97241.90;;;21.29;35.07
58223;BME280;44020;50.890;15.796;2023-04-22T12:41:15;97239.70;;;21.38;34.79
58223;BME280;44020;50.890;15.796;2023-04-22T12:43:42;97239.94;;;21.48;35.32
58223;BME280;44020;50.890;15.796;2023-04-22T12:46:10;97235.02;;;21.57;34.75
58223;BME280;44020;50.890;15.796;2023-04-22T12:48:38;97230.48;;;21.65;34.61
58223;BME280;44020;50.890;15.796;2023-04-22T12:51:06;97233.20;;;21.72;34.53
58223;BME280;44020;50.890;15.796;2023-04-22T12:53:33;97228.23;;;21.78;34.38
58223;BME280;44020;50.890;15.796;2023-04-22T12:56:01;97224.16;;;21.85;34.01
58223;BME280;44020;50.890;15.796;2023-04-22T12:58:28;97224.06;;;21.92;34.01
58223;BME280;44020;50.890;15.796;2023-04-22T13:00:56;97223.97;;;22.01;34.22
58223;BME280;44020;50.890;15.796;2023-04-22T13:03:24;97219.39;;;22.09;33.75
58223;BME280;44020;50.890;15.796;2023-04-22T13:05:51;97216.16;;;22.16;33.26
58223;BME280;44020;50.890;15.796;2023-04-22T13:08:19;97213.04;;;22.17;33.40